Time;durP1;ratioP1;P1;durP2;ratioP2;P2;SDS_P1;SDS_P2;PMS_P1;PMS_P2;Temp;Humidity;BMP_temperature;BMP_pressure;BME280_temperature;BME280_humidity;BME280_pressure;Samples;Min_cycle;Max_cycle;Signal;HPM_P1;HPM_P2
2022/03/31 00:00:28;;;;;;;10.52;9.15;;;;;;;;;;5103772;28;20020;-66
2022/03/31 00:02:55;;;;;;;10.85;8.60;;;;;;;;;;5098521;28;20468;-66
2022/03/31 00:05:20;;;;;;;11.23;8.63;;;;;;;;;;5101210;28;20055;-66
2022/03/31 00:07:50;;;;;;;9.65;7.95;;;;;;;;;;5113998;28;20625;-67
2022/03/31 00:10:22;;;;;;;10.50;8.68;;;;;;;;;;5098953;28;20062;-66
2022/03/31 00:12:48;;;;;;;8.80;7.90;;;;;;;;;;5099266;28;20419;-66
2022/03/31 00:15:13;;;;;;;11.05;7.50;;;;;;;;;;5112456;28;20023;-67
2022/03/31 00:17:38;;;;;;;11.85;8.25;;;;;;;;;;5114069;28;20115;-66
2022/03/31 00:20:04;;;;;;;9.90;8.77;;;;;;;;;;5096883;28;20024;-65
2022/03/31 00:22:29;;;;;;;8.50;7.53;;;;;;;;;;5110547;28;20036;-66
2022/03/31 00:24:54;;;;;;;8.80;7.47;;;;;;;;;;5098277;28;20020;-66
2022/03/31 00:27:19;;;;;;;8.95;7.60;;;;;;;;;;5107898;28;20028;-66
2022/03/31 00:29:45;;;;;;;8.70;7.80;;;;;;;;;;5104122;28;20061;-66
2022/03/31 00:32:10;;;;;;;10.98;8.07;;;;;;;;;;5113244;28;20040;-65
2022/03/31 00:34:35;;;;;;;11.57;8.50;;;;;;;;;;5109416;28;20027;-66
2022/03/31 00:37:00;;;;;;;9.02;7.55;;;;;;;;;;5110189;28;20535;-66
2022/03/31 00:39:29;;;;;;;8.85;8.05;;;;;;;;;;5095476;28;20623;-66
2022/03/31 00:41:55;;;;;;;8.73;7.93;;;;;;;;;;5102606;28;20025;-66
2022/03/31 00:44:20;;;;;;;8.05;7.18;;;;;;;;;;5111524;28;20156;-66
2022/03/31 00:46:46;;;;;;;9.88;7.88;;;;;;;;;;5107311;28;20034;-65
2022/03/31 00:49:12;;;;;;;8.88;6.85;;;;;;;;;;5102540;28;20023;-66
2022/03/31 00:51:37;;;;;;;7.95;6.90;;;;;;;;;;5098269;28;20406;-63
2022/03/31 00:54:02;;;;;;;9.15;7.85;;;;;;;;;;5110926;28;20106;-65
2022/03/31 00:56:28;;;;;;;9.73;7.38;;;;;;;;;;5104591;28;20037;-65
2022/03/31 00:58:54;;;;;;;8.13;6.60;;;;;;;;;;5102871;28;20047;-66
2022/03/31 01:01:19;;;;;;;9.23;6.85;;;;;;;;;;5103605;28;20035;-66
2022/03/31 01:03:44;;;;;;;8.80;7.75;;;;;;;;;;5109397;28;20433;-65
2022/03/31 01:06:09;;;;;;;9.73;7.47;;;;;;;;;;5099918;28;20107;-66
2022/03/31 01:08:35;;;;;;;10.82;8.00;;;;;;;;;;5112165;28;20038;-65
2022/03/31 01:11:00;;;;;;;9.10;7.45;;;;;;;;;;5112733;28;20084;-66
2022/03/31 01:13:26;;;;;;;8.48;6.68;;;;;;;;;;5106762;28;20297;-66
2022/03/31 01:15:51;;;;;;;8.48;7.57;;;;;;;;;;5109574;28;20039;-66
2022/03/31 01:18:16;;;;;;;7.95;6.70;;;;;;;;;;5095459;28;20070;-66
2022/03/31 01:20:42;;;;;;;8.43;6.97;;;;;;;;;;5101439;28;20045;-66
2022/03/31 01:23:09;;;;;;;9.00;6.93;;;;;;;;;;5095010;28;20110;-65
2022/03/31 01:25:35;;;;;;;7.00;6.25;;;;;;;;;;5103234;28;20043;-66
2022/03/31 01:28:00;;;;;;;8.27;6.80;;;;;;;;;;5101891;28;20472;-64
2022/03/31 01:30:25;;;;;;;7.25;6.47;;;;;;;;;;5104164;28;20050;-66
2022/03/31 01:32:50;;;;;;;7.53;6.80;;;;;;;;;;5110405;28;20533;-65
2022/03/31 01:35:16;;;;;;;8.65;7.15;;;;;;;;;;5108058;28;20433;-66
2022/03/31 01:37:42;;;;;;;7.70;6.72;;;;;;;;;;5095514;28;20024;-66
2022/03/31 01:40:07;;;;;;;7.82;7.07;;;;;;;;;;5096690;28;20028;-66
2022/03/31 01:42:34;;;;;;;9.20;6.97;;;;;;;;;;5112588;27;20027;-65
2022/03/31 01:44:59;;;;;;;12.20;6.97;;;;;;;;;;5098831;28;20035;-66
2022/03/31 01:47:25;;;;;;;8.43;7.40;;;;;;;;;;5105906;28;20023;-65
2022/03/31 01:49:51;;;;;;;8.68;7.18;;;;;;;;;;5111535;28;20500;-64
2022/03/31 01:52:16;;;;;;;7.20;6.45;;;;;;;;;;5112717;28;20076;-65
2022/03/31 01:54:41;;;;;;;7.25;6.28;;;;;;;;;;5106659;28;20405;-64
2022/03/31 01:57:07;;;;;;;7.03;6.30;;;;;;;;;;5101912;28;20020;-65
2022/03/31 01:59:33;;;;;;;8.25;6.97;;;;;;;;;;5104840;28;20055;-65
2022/03/31 02:01:58;;;;;;;7.20;6.50;;;;;;;;;;5110998;28;20420;-66
2022/03/31 02:04:23;;;;;;;7.30;6.60;;;;;;;;;;5111969;28;20123;-65
2022/03/31 02:06:48;;;;;;;8.52;6.25;;;;;;;;;;5099904;28;20035;-65
2022/03/31 02:09:13;;;;;;;7.10;6.40;;;;;;;;;;5101728;28;20050;-65
2022/03/31 02:11:40;;;;;;;8.18;6.50;;;;;;;;;;5091974;28;20543;-65
2022/03/31 02:14:05;;;;;;;8.30;6.40;;;;;;;;;;5095508;28;20031;-65
2022/03/31 02:16:30;;;;;;;7.22;6.50;;;;;;;;;;5095971;28;20028;-65
2022/03/31 02:18:55;;;;;;;7.80;6.97;;;;;;;;;;5107351;28;20043;-65
2022/03/31 02:21:21;;;;;;;8.40;6.90;;;;;;;;;;5096717;28;20085;-65
2022/03/31 02:23:47;;;;;;;7.03;6.32;;;;;;;;;;5098738;28;20051;-65
2022/03/31 02:26:12;;;;;;;7.82;6.50;;;;;;;;;;5094001;28;20101;-65
2022/03/31 02:28:39;;;;;;;8.00;7.20;;;;;;;;;;5109434;28;20024;-65
2022/03/31 02:31:04;;;;;;;7.75;6.95;;;;;;;;;;5103482;28;20024;-65
2022/03/31 02:33:29;;;;;;;8.93;5.97;;;;;;;;;;5099642;28;20028;-65
2022/03/31 02:35:54;;;;;;;8.60;6.95;;;;;;;;;;5105774;28;20480;-65
2022/03/31 02:38:19;;;;;;;7.05;6.40;;;;;;;;;;5101940;28;20059;-64
2022/03/31 02:40:45;;;;;;;8.50;6.90;;;;;;;;;;5093260;28;20061;-65
2022/03/31 02:43:12;;;;;;;8.43;7.63;;;;;;;;;;5109959;28;20049;-64
2022/03/31 02:45:37;;;;;;;8.68;7.03;;;;;;;;;;5111148;28;20453;-65
2022/03/31 02:48:02;;;;;;;9.88;7.13;;;;;;;;;;5103466;28;20028;-64
2022/03/31 02:50:28;;;;;;;7.88;6.72;;;;;;;;;;5096040;28;20118;-66
2022/03/31 02:55:38;;;;;;;8.38;7.40;;;;;;;;;;5093440;28;20035;-64
2022/03/31 02:58:04;;;;;;;8.82;7.40;;;;;;;;;;5107167;28;20451;-65
2022/03/31 03:00:30;;;;;;;12.40;8.23;;;;;;;;;;5107442;28;20027;-65
2022/03/31 03:02:56;;;;;;;9.32;8.30;;;;;;;;;;5110429;28;20034;-65
2022/03/31 03:05:21;;;;;;;10.40;8.57;;;;;;;;;;5103281;28;20023;-65
2022/03/31 03:07:46;;;;;;;10.82;8.60;;;;;;;;;;5094817;28;20077;-65
2022/03/31 03:10:13;;;;;;;12.40;9.43;;;;;;;;;;5093242;28;20034;-65
2022/03/31 03:12:41;;;;;;;11.23;8.98;;;;;;;;;;5100965;28;20464;-65
2022/03/31 03:15:06;;;;;;;11.10;8.95;;;;;;;;;;5101125;28;20039;-65
2022/03/31 03:17:32;;;;;;;9.93;8.10;;;;;;;;;;5092497;28;20040;-65
2022/03/31 03:19:58;;;;;;;9.10;8.05;;;;;;;;;;5103526;28;20110;-65
2022/03/31 03:22:23;;;;;;;11.25;8.50;;;;;;;;;;5102165;28;20139;-66
2022/03/31 03:24:48;;;;;;;9.30;8.30;;;;;;;;;;5096453;28;20073;-65
2022/03/31 03:27:13;;;;;;;10.30;8.38;;;;;;;;;;5106863;28;20040;-66
2022/03/31 03:29:46;;;;;;;10.82;8.75;;;;;;;;;;5099257;28;20016;-65
2022/03/31 03:32:11;;;;;;;10.93;8.80;;;;;;;;;;5100739;28;20024;-66
2022/03/31 03:34:36;;;;;;;10.95;8.82;;;;;;;;;;5103843;28;20108;-64
2022/03/31 03:37:02;;;;;;;12.48;9.60;;;;;;;;;;5110570;28;20114;-65
2022/03/31 03:39:27;;;;;;;10.13;8.98;;;;;;;;;;5105030;28;20069;-65
2022/03/31 03:41:52;;;;;;;12.60;9.35;;;;;;;;;;5105774;28;20031;-65
2022/03/31 03:44:17;;;;;;;13.18;10.10;;;;;;;;;;5098452;28;20031;-64
2022/03/31 03:46:43;;;;;;;11.40;9.50;;;;;;;;;;5104250;28;20427;-65
2022/03/31 03:49:08;;;;;;;11.80;10.07;;;;;;;;;;5109906;28;20453;-65
2022/03/31 03:51:33;;;;;;;12.98;10.95;;;;;;;;;;5102243;28;20039;-64
2022/03/31 03:53:58;;;;;;;14.90;11.38;;;;;;;;;;5112619;28;20032;-64
2022/03/31 03:56:23;;;;;;;18.50;11.55;;;;;;;;;;5104346;28;20185;-66
2022/03/31 03:58:49;;;;;;;14.75;11.02;;;;;;;;;;5112308;28;20055;-65
2022/03/31 04:01:14;;;;;;;16.55;12.50;;;;;;;;;;5102951;28;20510;-65
2022/03/31 04:03:39;;;;;;;13.95;10.70;;;;;;;;;;5110127;28;20023;-65
2022/03/31 04:06:05;;;;;;;16.90;12.20;;;;;;;;;;5114012;28;20058;-64
2022/03/31 04:08:30;;;;;;;14.23;12.02;;;;;;;;;;5096196;28;20016;-65
2022/03/31 04:10:55;;;;;;;14.50;11.68;;;;;;;;;;5111125;28;20027;-65
2022/03/31 04:13:20;;;;;;;15.00;11.48;;;;;;;;;;5104574;28;20023;-66
2022/03/31 04:15:46;;;;;;;14.38;11.10;;;;;;;;;;5094639;28;20030;-65
2022/03/31 04:18:11;;;;;;;14.38;11.35;;;;;;;;;;5095996;28;20053;-65
2022/03/31 04:20:37;;;;;;;15.23;11.57;;;;;;;;;;5106266;28;20081;-61
2022/03/31 04:23:02;;;;;;;16.27;11.07;;;;;;;;;;5098440;28;20409;-65
2022/03/31 04:25:28;;;;;;;12.40;10.43;;;;;;;;;;5102893;28;20019;-65
2022/03/31 04:27:53;;;;;;;13.60;10.60;;;;;;;;;;5106720;28;20012;-66
2022/03/31 04:30:20;;;;;;;13.48;10.38;;;;;;;;;;5106231;28;20109;-65
2022/03/31 04:32:47;;;;;;;15.57;12.02;;;;;;;;;;5102596;28;20024;-66
2022/03/31 04:35:12;;;;;;;15.27;11.00;;;;;;;;;;5100185;28;20081;-65
2022/03/31 04:37:37;;;;;;;15.10;11.98;;;;;;;;;;5094206;28;20027;-66
2022/03/31 04:40:03;;;;;;;14.77;12.00;;;;;;;;;;5104666;28;20032;-65
2022/03/31 04:42:28;;;;;;;13.27;10.43;;;;;;;;;;5109728;28;20038;-65
2022/03/31 04:44:53;;;;;;;14.48;11.50;;;;;;;;;;5111496;28;20377;-65
2022/03/31 04:47:19;;;;;;;15.07;11.20;;;;;;;;;;5099579;28;20051;-66
2022/03/31 04:49:44;;;;;;;14.68;11.75;;;;;;;;;;5096181;28;20065;-65
2022/03/31 04:52:09;;;;;;;14.32;11.43;;;;;;;;;;5094986;27;20042;-65
2022/03/31 04:54:34;;;;;;;15.15;11.77;;;;;;;;;;5100101;28;20031;-66
2022/03/31 04:57:00;;;;;;;14.02;11.82;;;;;;;;;;5100103;28;20075;-66
2022/03/31 04:59:25;;;;;;;16.23;11.82;;;;;;;;;;5112194;28;20042;-66
2022/03/31 05:01:51;;;;;;;13.20;10.80;;;;;;;;;;5109912;28;20460;-66
2022/03/31 05:04:16;;;;;;;15.63;12.30;;;;;;;;;;5112907;28;20039;-66
2022/03/31 05:06:41;;;;;;;14.65;11.45;;;;;;;;;;5113715;28;20019;-66
2022/03/31 05:09:07;;;;;;;15.73;12.05;;;;;;;;;;5095138;28;20024;-66
2022/03/31 05:11:32;;;;;;;16.42;13.20;;;;;;;;;;5106771;28;20027;-66
2022/03/31 05:13:57;;;;;;;14.23;12.25;;;;;;;;;;5113283;28;20077;-66
2022/03/31 05:16:22;;;;;;;17.45;12.88;;;;;;;;;;5098594;28;20024;-66
2022/03/31 05:18:48;;;;;;;16.27;12.60;;;;;;;;;;5095637;28;20020;-66
2022/03/31 05:21:13;;;;;;;17.40;11.93;;;;;;;;;;5103243;28;20040;-66
2022/03/31 05:23:38;;;;;;;16.50;12.13;;;;;;;;;;5095258;28;20036;-66
2022/03/31 05:26:03;;;;;;;16.98;13.43;;;;;;;;;;5100836;28;20024;-66
2022/03/31 05:28:29;;;;;;;18.42;13.88;;;;;;;;;;5113117;28;20015;-66
2022/03/31 05:30:54;;;;;;;18.77;13.20;;;;;;;;;;5107621;28;20024;-66
2022/03/31 05:33:19;;;;;;;18.42;13.48;;;;;;;;;;5104627;28;20020;-67
2022/03/31 05:35:45;;;;;;;21.02;14.70;;;;;;;;;;5096815;28;20526;-67
2022/03/31 05:38:10;;;;;;;18.40;14.10;;;;;;;;;;5092984;28;20024;-66
2022/03/31 05:40:35;;;;;;;19.48;13.60;;;;;;;;;;5094038;28;20115;-66
2022/03/31 05:43:00;;;;;;;18.90;13.52;;;;;;;;;;5095668;28;20024;-66
2022/03/31 05:45:26;;;;;;;19.85;14.32;;;;;;;;;;5109292;28;20034;-66
2022/03/31 05:47:52;;;;;;;18.00;14.05;;;;;;;;;;5113062;28;20491;-66
2022/03/31 05:50:17;;;;;;;20.63;14.77;;;;;;;;;;5109442;28;20019;-65
2022/03/31 05:52:43;;;;;;;22.27;16.27;;;;;;;;;;5092738;28;20040;-66
2022/03/31 05:55:10;;;;;;;20.52;14.98;;;;;;;;;;5093051;28;20024;-65
2022/03/31 05:57:35;;;;;;;19.25;14.48;;;;;;;;;;5099351;28;20044;-66
2022/03/31 06:00:01;;;;;;;20.38;15.75;;;;;;;;;;5112457;28;20020;-64
2022/03/31 06:02:26;;;;;;;19.52;14.65;;;;;;;;;;5112090;28;20059;-64
2022/03/31 06:04:52;;;;;;;21.25;15.52;;;;;;;;;;5104459;28;20020;-65
2022/03/31 06:07:17;;;;;;;23.50;16.52;;;;;;;;;;5108957;28;20024;-67
2022/03/31 06:09:42;;;;;;;23.05;16.40;;;;;;;;;;5112254;28;20131;-66
2022/03/31 06:12:08;;;;;;;21.08;16.05;;;;;;;;;;5112330;28;20019;-66
2022/03/31 06:14:33;;;;;;;19.52;14.80;;;;;;;;;;5112056;28;20036;-65
2022/03/31 06:16:58;;;;;;;21.65;16.70;;;;;;;;;;5112923;28;20055;-66
2022/03/31 06:19:23;;;;;;;20.65;15.13;;;;;;;;;;5094431;28;20117;-64
2022/03/31 06:21:48;;;;;;;23.05;15.90;;;;;;;;;;5092313;28;20151;-65
2022/03/31 06:24:13;;;;;;;21.40;15.02;;;;;;;;;;5099475;28;21910;-64
2022/03/31 06:26:39;;;;;;;19.70;14.98;;;;;;;;;;5107917;28;20668;-65
2022/03/31 06:29:05;;;;;;;22.70;14.45;;;;;;;;;;5111207;28;20020;-65
2022/03/31 06:31:30;;;;;;;23.70;17.63;;;;;;;;;;5111750;28;20023;-64
2022/03/31 06:33:55;;;;;;;23.42;16.50;;;;;;;;;;5099308;28;20093;-65
2022/03/31 06:36:20;;;;;;;19.80;15.32;;;;;;;;;;5107775;28;20131;-64
2022/03/31 06:38:46;;;;;;;20.75;16.02;;;;;;;;;;5110934;28;20031;-64
2022/03/31 06:41:15;;;;;;;18.83;14.00;;;;;;;;;;5111861;28;20039;-64
2022/03/31 06:43:42;;;;;;;21.08;15.13;;;;;;;;;;5111804;28;20080;-65
2022/03/31 06:46:08;;;;;;;18.10;14.82;;;;;;;;;;5111137;28;20387;-65
2022/03/31 06:48:35;;;;;;;18.88;13.45;;;;;;;;;;5112475;28;20034;-65
2022/03/31 06:51:01;;;;;;;20.17;14.27;;;;;;;;;;5103394;28;20020;-65
2022/03/31 06:53:26;;;;;;;21.30;15.73;;;;;;;;;;5094086;28;20036;-65
2022/03/31 06:55:51;;;;;;;18.13;14.32;;;;;;;;;;5107594;28;20039;-63
2022/03/31 06:58:17;;;;;;;16.73;13.48;;;;;;;;;;5107223;28;20056;-65
2022/03/31 07:00:42;;;;;;;18.05;14.55;;;;;;;;;;5098465;28;20062;-64
2022/03/31 07:03:07;;;;;;;19.65;14.68;;;;;;;;;;5110533;28;20024;-63
2022/03/31 07:05:35;;;;;;;18.13;13.95;;;;;;;;;;5100198;28;20047;-64
2022/03/31 07:08:00;;;;;;;22.08;16.73;;;;;;;;;;5100012;28;20107;-64
2022/03/31 07:10:25;;;;;;;17.52;14.05;;;;;;;;;;5110903;28;20499;-66
2022/03/31 07:12:50;;;;;;;19.75;14.23;;;;;;;;;;5104445;28;20027;-65
2022/03/31 07:15:15;;;;;;;17.90;13.48;;;;;;;;;;5110223;28;20050;-66
2022/03/31 07:17:41;;;;;;;17.67;13.70;;;;;;;;;;5093973;28;20028;-65
2022/03/31 07:20:06;;;;;;;18.58;14.10;;;;;;;;;;5094832;28;20028;-65
2022/03/31 07:22:32;;;;;;;18.63;13.60;;;;;;;;;;5105977;28;20016;-66
2022/03/31 07:24:58;;;;;;;15.95;13.35;;;;;;;;;;5107345;28;20023;-65
2022/03/31 07:27:23;;;;;;;19.17;14.77;;;;;;;;;;5105249;28;20055;-65
2022/03/31 07:29:48;;;;;;;17.75;13.85;;;;;;;;;;5101331;28;20051;-65
2022/03/31 07:32:13;;;;;;;19.00;13.90;;;;;;;;;;5107322;28;20024;-65
2022/03/31 07:34:39;;;;;;;20.10;14.93;;;;;;;;;;5113831;28;20063;-66
2022/03/31 07:37:05;;;;;;;20.10;15.65;;;;;;;;;;5098239;28;20438;-64
2022/03/31 07:39:30;;;;;;;19.60;14.60;;;;;;;;;;5103745;28;20028;-63
2022/03/31 07:41:55;;;;;;;20.25;15.52;;;;;;;;;;5104577;28;20016;-64
2022/03/31 07:44:21;;;;;;;20.42;15.27;;;;;;;;;;5101742;28;20024;-64
2022/03/31 07:46:46;;;;;;;21.38;15.60;;;;;;;;;;5095582;28;20434;-65
2022/03/31 07:49:12;;;;;;;16.15;13.43;;;;;;;;;;5109438;28;20460;-64
2022/03/31 07:51:37;;;;;;;18.60;14.30;;;;;;;;;;5095399;28;20035;-66
2022/03/31 07:54:03;;;;;;;16.35;13.18;;;;;;;;;;5108355;28;20028;-64
2022/03/31 07:56:28;;;;;;;17.45;12.93;;;;;;;;;;5111687;28;20032;-64
2022/03/31 07:58:53;;;;;;;16.48;13.45;;;;;;;;;;5109396;28;20090;-64
2022/03/31 08:01:18;;;;;;;18.13;14.45;;;;;;;;;;5107237;28;20039;-64
2022/03/31 08:03:43;;;;;;;16.50;13.65;;;;;;;;;;5106950;28;20080;-64
2022/03/31 08:06:09;;;;;;;17.27;14.30;;;;;;;;;;5109191;28;20028;-64
2022/03/31 08:08:40;;;;;;;20.70;15.77;;;;;;;;;;5094762;28;20028;-65
2022/03/31 08:11:06;;;;;;;19.90;14.75;;;;;;;;;;5094400;28;20023;-65
2022/03/31 08:13:31;;;;;;;19.80;15.35;;;;;;;;;;5105114;28;20023;-64
2022/03/31 08:15:58;;;;;;;21.67;14.82;;;;;;;;;;5107983;28;20028;-65
2022/03/31 08:18:26;;;;;;;19.90;15.50;;;;;;;;;;5114648;28;20027;-65
2022/03/31 08:20:51;;;;;;;19.92;15.63;;;;;;;;;;5111658;28;20429;-65
2022/03/31 08:23:16;;;;;;;22.92;16.90;;;;;;;;;;5113357;28;20055;-65
2022/03/31 08:25:42;;;;;;;23.67;17.00;;;;;;;;;;5107795;28;20026;-63
2022/03/31 08:28:07;;;;;;;21.08;16.52;;;;;;;;;;5107420;28;20026;-64
2022/03/31 08:30:33;;;;;;;22.25;16.92;;;;;;;;;;5108019;28;20016;-65
2022/03/31 08:32:58;;;;;;;23.50;17.08;;;;;;;;;;5112611;28;20062;-65
2022/03/31 08:35:27;;;;;;;23.20;17.27;;;;;;;;;;5113362;28;20031;-64
2022/03/31 08:37:52;;;;;;;25.40;18.15;;;;;;;;;;5099605;28;20015;-65
2022/03/31 08:40:17;;;;;;;21.25;15.77;;;;;;;;;;5114477;28;20372;-64
2022/03/31 08:42:43;;;;;;;19.35;15.70;;;;;;;;;;5113246;28;20024;-65
2022/03/31 08:45:10;;;;;;;19.02;15.45;;;;;;;;;;5098377;28;20077;-64
2022/03/31 08:47:36;;;;;;;22.33;16.48;;;;;;;;;;5103797;28;20034;-65
2022/03/31 08:50:02;;;;;;;19.13;14.45;;;;;;;;;;5097085;28;20502;-64
2022/03/31 08:52:27;;;;;;;23.20;17.55;;;;;;;;;;5098320;28;20023;-64
2022/03/31 08:54:52;;;;;;;20.67;16.02;;;;;;;;;;5104402;28;20379;-64
2022/03/31 08:57:18;;;;;;;22.90;17.33;;;;;;;;;;5106446;28;20075;-66
2022/03/31 08:59:43;;;;;;;22.05;16.45;;;;;;;;;;5106106;28;20058;-65
2022/03/31 09:02:09;;;;;;;22.13;16.52;;;;;;;;;;5111577;28;20042;-64
2022/03/31 09:04:35;;;;;;;20.15;16.27;;;;;;;;;;5107698;28;20055;-65
2022/03/31 09:07:04;;;;;;;20.88;16.65;;;;;;;;;;5111983;28;20054;-68
2022/03/31 09:09:29;;;;;;;21.65;16.65;;;;;;;;;;5110186;28;20073;-67
2022/03/31 09:11:55;;;;;;;22.08;16.65;;;;;;;;;;5111946;28;20380;-68
2022/03/31 09:14:30;;;;;;;22.33;17.05;;;;;;;;;;5110136;28;20387;-63
2022/03/31 09:16:55;;;;;;;23.30;16.98;;;;;;;;;;5110240;28;20037;-64
2022/03/31 09:19:20;;;;;;;20.98;16.05;;;;;;;;;;5109409;28;20039;-63
2022/03/31 09:21:50;;;;;;;19.05;15.82;;;;;;;;;;5113042;28;20042;-64
2022/03/31 09:24:16;;;;;;;22.40;16.25;;;;;;;;;;5110031;28;20452;-64
2022/03/31 09:26:45;;;;;;;20.35;15.88;;;;;;;;;;5096046;28;20073;-64
2022/03/31 09:29:12;;;;;;;20.30;16.50;;;;;;;;;;5103922;28;20038;-63
2022/03/31 09:31:38;;;;;;;19.20;16.48;;;;;;;;;;5102718;28;20626;-64
2022/03/31 09:34:03;;;;;;;19.08;16.38;;;;;;;;;;5102526;28;20568;-63
2022/03/31 09:36:28;;;;;;;19.85;16.10;;;;;;;;;;5102931;28;20026;-64
2022/03/31 09:38:53;;;;;;;20.02;15.85;;;;;;;;;;5101692;28;20832;-63
2022/03/31 09:41:20;;;;;;;19.96;15.50;;;;;;;;;;5101409;28;20016;-64
2022/03/31 09:43:46;;;;;;;20.65;16.20;;;;;;;;;;5098754;28;20027;-63
2022/03/31 09:46:20;;;;;;;18.33;15.00;;;;;;;;;;5103484;28;20019;-63
2022/03/31 09:48:45;;;;;;;19.13;15.40;;;;;;;;;;5102590;28;20028;-63
2022/03/31 09:51:11;;;;;;;18.73;15.23;;;;;;;;;;5108125;28;20043;-63
2022/03/31 09:53:36;;;;;;;18.00;15.18;;;;;;;;;;5103409;28;20031;-63
2022/03/31 09:56:02;;;;;;;19.45;15.57;;;;;;;;;;5099634;28;20031;-63
2022/03/31 09:58:27;;;;;;;20.67;15.65;;;;;;;;;;5103203;28;20051;-63
2022/03/31 10:00:53;;;;;;;21.35;16.55;;;;;;;;;;5099589;28;20035;-63
2022/03/31 10:03:19;;;;;;;19.63;16.23;;;;;;;;;;5104988;28;20024;-65
2022/03/31 10:05:45;;;;;;;20.20;15.93;;;;;;;;;;5103849;28;20026;-64
2022/03/31 10:08:11;;;;;;;21.30;16.92;;;;;;;;;;5102105;28;20034;-64
2022/03/31 10:10:37;;;;;;;20.67;16.27;;;;;;;;;;5102030;28;20439;-64
2022/03/31 10:13:24;;;;;;;21.48;16.45;;;;;;;;;;5102453;28;20499;-63
2022/03/31 10:15:55;;;;;;;20.30;16.75;;;;;;;;;;5098201;28;20031;-63
2022/03/31 10:18:21;;;;;;;19.30;15.68;;;;;;;;;;5101148;28;20020;-63
2022/03/31 10:20:57;;;;;;;23.60;17.10;;;;;;;;;;5103261;28;20036;-64
2022/03/31 10:26:05;;;;;;;20.63;16.02;;;;;;;;;;5093102;28;20026;-64
2022/03/31 10:28:31;;;;;;;22.55;17.23;;;;;;;;;;5111602;28;20019;-64
2022/03/31 10:30:57;;;;;;;22.65;16.80;;;;;;;;;;5107586;28;20015;-63
2022/03/31 10:33:29;;;;;;;21.30;17.23;;;;;;;;;;5112734;28;20090;-63
2022/03/31 10:36:02;;;;;;;20.25;16.67;;;;;;;;;;5112288;28;20098;-63
2022/03/31 10:38:29;;;;;;;19.33;16.48;;;;;;;;;;5103040;28;20115;-63
2022/03/31 10:41:00;;;;;;;21.83;16.63;;;;;;;;;;5093339;28;20069;-63
2022/03/31 10:43:28;;;;;;;21.75;16.77;;;;;;;;;;5106775;28;20083;-63
2022/03/31 10:45:54;;;;;;;20.75;16.70;;;;;;;;;;5110823;28;20016;-64
2022/03/31 10:48:20;;;;;;;20.63;17.98;;;;;;;;;;5092288;28;20023;-64
2022/03/31 10:50:46;;;;;;;21.58;17.45;;;;;;;;;;5092685;28;20026;-64
2022/03/31 10:53:11;;;;;;;22.90;18.35;;;;;;;;;;5105335;28;20484;-63
2022/03/31 10:55:40;;;;;;;22.67;16.95;;;;;;;;;;5111896;28;20035;-64
2022/03/31 10:58:06;;;;;;;20.30;17.58;;;;;;;;;;5111445;28;20499;-64
2022/03/31 11:00:31;;;;;;;25.23;19.88;;;;;;;;;;5114328;28;20073;-64
2022/03/31 11:02:56;;;;;;;20.52;17.67;;;;;;;;;;5100886;28;20493;-64
2022/03/31 11:05:22;;;;;;;20.73;18.30;;;;;;;;;;5103896;28;20080;-64
2022/03/31 11:07:48;;;;;;;24.10;18.77;;;;;;;;;;5116805;28;20055;-63
2022/03/31 11:10:15;;;;;;;20.92;17.88;;;;;;;;;;5116514;28;20069;-64
2022/03/31 11:12:41;;;;;;;23.58;17.95;;;;;;;;;;5104674;28;20024;-63
2022/03/31 11:15:07;;;;;;;24.30;19.13;;;;;;;;;;5098069;28;20114;-64
2022/03/31 11:17:32;;;;;;;24.85;19.15;;;;;;;;;;5095778;28;20375;-65
2022/03/31 11:19:58;;;;;;;22.92;18.40;;;;;;;;;;5095491;28;20038;-63
2022/03/31 11:22:26;;;;;;;23.67;18.35;;;;;;;;;;5103181;28;20114;-64
2022/03/31 11:24:52;;;;;;;22.25;18.38;;;;;;;;;;5116002;28;20493;-63
2022/03/31 11:27:29;;;;;;;20.88;17.88;;;;;;;;;;5112092;28;20023;-65
2022/03/31 11:29:58;;;;;;;23.35;18.73;;;;;;;;;;5115424;28;20027;-63
2022/03/31 11:32:30;;;;;;;22.02;18.58;;;;;;;;;;5112377;28;20019;-64
2022/03/31 11:34:56;;;;;;;21.52;17.27;;;;;;;;;;5099314;28;20020;-63
2022/03/31 11:37:21;;;;;;;23.58;19.25;;;;;;;;;;5104414;28;20073;-63
2022/03/31 11:39:46;;;;;;;29.88;22.15;;;;;;;;;;5095208;28;20046;-63
2022/03/31 11:42:12;;;;;;;24.60;19.35;;;;;;;;;;5095086;28;20028;-63
2022/03/31 11:44:41;;;;;;;22.67;18.90;;;;;;;;;;5110007;28;20031;-63
2022/03/31 11:47:06;;;;;;;22.65;19.45;;;;;;;;;;5115758;28;20528;-63
2022/03/31 11:49:31;;;;;;;22.70;17.60;;;;;;;;;;5114676;28;20047;-63
2022/03/31 11:51:57;;;;;;;23.45;18.50;;;;;;;;;;5102780;28;20036;-63
2022/03/31 11:54:23;;;;;;;21.30;18.27;;;;;;;;;;5108982;28;20023;-64
2022/03/31 11:57:02;;;;;;;21.83;18.02;;;;;;;;;;5111540;28;20092;-62
2022/03/31 11:59:27;;;;;;;21.35;18.55;;;;;;;;;;5106395;28;20476;-63
2022/03/31 12:01:52;;;;;;;24.05;18.05;;;;;;;;;;5114957;28;20118;-64
2022/03/31 12:04:18;;;;;;;19.30;16.13;;;;;;;;;;5111349;28;20039;-64
2022/03/31 12:06:43;;;;;;;23.50;19.30;;;;;;;;;;5105054;28;20012;-64
2022/03/31 12:09:10;;;;;;;21.52;17.90;;;;;;;;;;5094339;28;20016;-64
2022/03/31 12:11:35;;;;;;;22.50;18.45;;;;;;;;;;5093447;28;20023;-64
2022/03/31 12:14:02;;;;;;;23.55;18.20;;;;;;;;;;5102559;28;20388;-63
2022/03/31 12:16:27;;;;;;;21.52;17.67;;;;;;;;;;5099181;28;20468;-64
2022/03/31 12:18:53;;;;;;;23.05;18.20;;;;;;;;;;5093983;28;20043;-63
2022/03/31 12:21:18;;;;;;;21.55;17.90;;;;;;;;;;5094370;28;20468;-64
2022/03/31 12:23:44;;;;;;;23.75;18.27;;;;;;;;;;5094835;28;20028;-64
2022/03/31 12:26:11;;;;;;;22.45;17.40;;;;;;;;;;5098077;28;20057;-64
2022/03/31 12:28:40;;;;;;;21.73;17.42;;;;;;;;;;5113624;28;20047;-65
2022/03/31 12:31:05;;;;;;;21.83;16.85;;;;;;;;;;5114411;28;20011;-64
2022/03/31 12:33:34;;;;;;;22.88;19.27;;;;;;;;;;5114769;28;20065;-63
2022/03/31 12:36:00;;;;;;;22.67;17.75;;;;;;;;;;5109973;28;20047;-64
2022/03/31 12:38:43;;;;;;;22.20;17.58;;;;;;;;;;5094391;28;20020;-64
2022/03/31 12:41:16;;;;;;;22.92;17.90;;;;;;;;;;5092730;28;20016;-63
2022/03/31 12:43:42;;;;;;;20.85;15.90;;;;;;;;;;5097243;28;20022;-63
2022/03/31 12:46:14;;;;;;;20.25;17.23;;;;;;;;;;5114389;27;20098;-63
2022/03/31 12:48:49;;;;;;;21.45;17.20;;;;;;;;;;5113614;28;20493;-63
2022/03/31 12:51:14;;;;;;;22.17;16.58;;;;;;;;;;5114451;28;20053;-64
2022/03/31 12:53:41;;;;;;;19.02;16.25;;;;;;;;;;5114518;28;20119;-64
2022/03/31 12:56:07;;;;;;;22.02;16.42;;;;;;;;;;5111724;28;20043;-63
2022/03/31 12:58:37;;;;;;;20.95;16.67;;;;;;;;;;5108408;28;20154;-63
2022/03/31 13:01:02;;;;;;;19.55;16.63;;;;;;;;;;5113737;28;20016;-64
2022/03/31 13:03:27;;;;;;;19.48;16.75;;;;;;;;;;5113982;28;20020;-62
2022/03/31 13:05:52;;;;;;;23.30;18.00;;;;;;;;;;5113984;28;20372;-63
2022/03/31 13:08:18;;;;;;;20.52;16.75;;;;;;;;;;5110183;28;20038;-63
2022/03/31 13:10:43;;;;;;;21.83;17.98;;;;;;;;;;5114046;28;20030;-63
2022/03/31 13:13:10;;;;;;;21.08;17.38;;;;;;;;;;5113864;28;20494;-63
2022/03/31 13:15:35;;;;;;;25.13;18.08;;;;;;;;;;5113629;28;20132;-64
2022/03/31 13:18:01;;;;;;;22.73;18.25;;;;;;;;;;5112608;28;20499;-64
2022/03/31 13:20:26;;;;;;;23.15;17.02;;;;;;;;;;5111068;28;20100;-64
2022/03/31 13:22:51;;;;;;;22.48;18.23;;;;;;;;;;5113940;28;20030;-63
2022/03/31 13:25:17;;;;;;;22.38;18.00;;;;;;;;;;5112610;28;20026;-62
2022/03/31 13:27:42;;;;;;;23.00;18.67;;;;;;;;;;5104848;27;20020;-63
2022/03/31 13:30:08;;;;;;;22.40;17.92;;;;;;;;;;5107760;28;20026;-63
2022/03/31 13:32:33;;;;;;;25.00;19.05;;;;;;;;;;5113208;27;20047;-63
2022/03/31 13:34:58;;;;;;;22.17;17.85;;;;;;;;;;5113181;28;20031;-63
2022/03/31 13:37:24;;;;;;;23.17;18.38;;;;;;;;;;5113511;28;20020;-64
2022/03/31 13:39:50;;;;;;;21.65;18.05;;;;;;;;;;5107683;28;20030;-64
2022/03/31 13:42:16;;;;;;;24.90;19.70;;;;;;;;;;5113098;28;20023;-64
2022/03/31 13:44:41;;;;;;;25.48;20.30;;;;;;;;;;5100467;28;20384;-64
2022/03/31 13:47:08;;;;;;;28.35;20.23;;;;;;;;;;5106442;28;20099;-64
2022/03/31 13:49:33;;;;;;;24.83;20.52;;;;;;;;;;5091279;28;20032;-63
2022/03/31 13:51:59;;;;;;;22.27;18.08;;;;;;;;;;5099866;28;20024;-63
2022/03/31 13:54:25;;;;;;;27.70;21.23;;;;;;;;;;5102542;28;20020;-63
2022/03/31 13:56:50;;;;;;;23.67;20.33;;;;;;;;;;5099109;28;20031;-63
2022/03/31 14:02:01;;;;;;;24.27;19.42;;;;;;;;;;5108715;28;20078;-63
2022/03/31 14:04:26;;;;;;;23.25;18.42;;;;;;;;;;5092692;28;20437;-63
2022/03/31 14:06:52;;;;;;;25.50;20.15;;;;;;;;;;5112066;28;20153;-63
2022/03/31 14:09:19;;;;;;;25.50;21.17;;;;;;;;;;5110617;28;20020;-63
2022/03/31 14:11:45;;;;;;;23.23;19.23;;;;;;;;;;5104233;28;20035;-63
2022/03/31 14:14:10;;;;;;;22.02;18.27;;;;;;;;;;5112014;28;20024;-63
2022/03/31 14:16:40;;;;;;;24.20;19.13;;;;;;;;;;5113000;28;20096;-63
2022/03/31 14:19:06;;;;;;;22.90;18.70;;;;;;;;;;5112429;28;20023;-64
2022/03/31 14:21:31;;;;;;;24.70;19.73;;;;;;;;;;5096050;28;20020;-64
2022/03/31 14:23:57;;;;;;;22.63;18.95;;;;;;;;;;5098073;28;20020;-63